createdAt,value
2022-11-12T00:00:53.160Z,88.09
2022-11-12T00:03:20.197Z,87.83
2022-11-12T00:05:47.206Z,87.70
2022-11-12T00:08:14.033Z,87.81
2022-11-12T00:10:40.652Z,88.03
2022-11-12T00:13:07.176Z,88.06
2022-11-12T00:15:33.799Z,88.07
2022-11-12T00:18:00.582Z,87.76
2022-11-12T00:20:27.125Z,87.62
2022-11-12T00:22:53.688Z,87.93
2022-11-12T00:25:20.243Z,87.97
2022-11-12T00:27:46.739Z,87.80
2022-11-12T00:30:13.445Z,87.79
2022-11-12T00:32:40.164Z,87.95
2022-11-12T00:35:12.539Z,87.66
2022-11-12T00:37:40.570Z,88.02
2022-11-12T00:40:07.949Z,88.13
2022-11-12T00:42:34.475Z,87.92
2022-11-12T00:45:01.026Z,88.11
2022-11-12T00:47:27.582Z,87.77
2022-11-12T00:49:54.069Z,87.66
2022-11-12T00:52:20.575Z,87.93
2022-11-12T00:54:47.114Z,87.93
2022-11-12T00:57:13.610Z,88.02
2022-11-12T00:59:40.122Z,87.68
2022-11-12T01:02:06.705Z,88.27
2022-11-12T01:04:33.361Z,88.02
2022-11-12T01:06:59.958Z,87.81
2022-11-12T01:09:26.641Z,88.04
2022-11-12T01:11:53.147Z,88.10
2022-11-12T01:14:19.671Z,88.01
2022-11-12T01:16:46.276Z,88.30
2022-11-12T01:19:13.836Z,87.99
2022-11-12T01:21:43.112Z,87.62
2022-11-12T01:24:10.326Z,87.69
2022-11-12T01:26:37.616Z,87.86
2022-11-12T01:29:04.674Z,87.83
2022-11-12T01:31:37.171Z,87.09
2022-11-12T01:34:06.825Z,87.29
2022-11-12T01:36:36.733Z,87.57
2022-11-12T01:39:05.220Z,87.77
2022-11-12T01:41:33.791Z,87.99
2022-11-12T01:44:07.286Z,88.27
2022-11-12T01:46:37.328Z,88.16
2022-11-12T01:49:09.018Z,88.09
2022-11-12T01:51:42.682Z,87.89
2022-11-12T01:54:13.498Z,88.26
2022-11-12T01:56:42.466Z,88.18
2022-11-12T01:59:17.100Z,88.38
2022-11-12T02:01:43.629Z,88.46
2022-11-12T02:04:10.420Z,88.28
2022-11-12T02:06:39.401Z,88.40
2022-11-12T02:09:05.945Z,88.23
2022-11-12T02:11:32.448Z,88.10
2022-11-12T02:14:00.898Z,88.29
2022-11-12T02:16:39.027Z,88.17
2022-11-12T02:19:08.835Z,87.82
2022-11-12T02:21:36.085Z,87.69
2022-11-12T02:24:26.792Z,88.37
2022-11-12T02:26:55.546Z,88.02
2022-11-12T02:29:23.020Z,87.97
2022-11-12T02:31:49.612Z,87.72
2022-11-12T02:34:16.119Z,88.01
2022-11-12T02:36:42.605Z,88.04
2022-11-12T02:39:09.141Z,88.24
2022-11-12T02:41:35.674Z,88.07
2022-11-12T02:44:02.189Z,88.07
2022-11-12T02:46:28.719Z,88.08
2022-11-12T02:48:55.261Z,87.66
2022-11-12T02:51:21.811Z,88.00
2022-11-12T02:53:48.340Z,88.09
2022-11-12T02:56:14.868Z,88.11
2022-11-12T02:58:41.383Z,88.00
2022-11-12T03:01:07.995Z,87.50
2022-11-12T03:03:34.505Z,87.79
2022-11-12T03:06:01.681Z,87.85
2022-11-12T03:08:28.923Z,87.62
2022-11-12T03:10:55.661Z,87.32
2022-11-12T03:13:22.209Z,87.55
2022-11-12T03:15:48.792Z,87.61
2022-11-12T03:18:16.299Z,87.89
2022-11-12T03:20:42.836Z,88.06
2022-11-12T03:23:11.367Z,87.47
2022-11-12T03:25:38.633Z,87.69
2022-11-12T03:28:09.355Z,87.60
2022-11-12T03:30:39.114Z,87.47
2022-11-12T03:33:07.240Z,88.07
2022-11-12T03:35:34.762Z,87.67
2022-11-12T03:38:02.060Z,87.72
2022-11-12T03:40:29.166Z,87.69
2022-11-12T03:42:56.220Z,87.62
2022-11-12T03:45:25.433Z,87.68
2022-11-12T03:47:54.799Z,87.41
2022-11-12T03:50:24.830Z,87.58
2022-11-12T03:52:53.529Z,87.68
2022-11-12T03:55:22.146Z,87.48
2022-11-12T03:57:49.753Z,87.97
2022-11-12T04:00:17.052Z,88.09
2022-11-12T04:02:43.814Z,87.88
2022-11-12T04:05:28.982Z,87.93
2022-11-12T04:08:21.545Z,87.96
2022-11-12T04:10:48.489Z,87.77
2022-11-12T04:13:30.448Z,87.64
2022-11-12T04:16:23.316Z,87.75
2022-11-12T04:19:10.797Z,87.59
2022-11-12T04:21:50.915Z,87.66
2022-11-12T04:24:54.477Z,87.74
2022-11-12T04:27:32.626Z,87.15
2022-11-12T04:30:18.961Z,87.74
2022-11-12T04:32:54.692Z,87.88
2022-11-12T04:35:23.204Z,87.85
2022-11-12T04:37:50.078Z,87.69
2022-11-12T04:40:39.236Z,87.58
2022-11-12T04:43:26.190Z,87.99
2022-11-12T04:45:54.280Z,88.43
2022-11-12T04:48:21.814Z,88.42
2022-11-12T04:50:52.849Z,88.19
2022-11-12T04:53:19.830Z,88.40
2022-11-12T04:55:50.084Z,88.28
2022-11-12T04:58:16.821Z,88.16
2022-11-12T05:00:43.362Z,88.19
2022-11-12T05:03:09.955Z,88.45
2022-11-12T05:05:36.792Z,88.27
2022-11-12T05:08:03.393Z,88.76
2022-11-12T05:10:30.885Z,88.43
2022-11-12T05:12:57.651Z,88.21
2022-11-12T05:15:24.440Z,88.60
2022-11-12T05:17:51.000Z,88.20
2022-11-12T05:20:18.223Z,88.51
2022-11-12T05:22:59.007Z,88.35
2022-11-12T05:25:31.302Z,88.21
2022-11-12T05:27:57.804Z,88.03
2022-11-12T05:30:24.372Z,88.53
2022-11-12T05:32:50.896Z,88.41
2022-11-12T05:35:17.393Z,88.29
2022-11-12T05:37:44.110Z,88.42
2022-11-12T05:40:10.944Z,87.99
2022-11-12T05:42:37.473Z,88.28
2022-11-12T05:45:04.479Z,88.00
2022-11-12T05:47:30.964Z,87.81
2022-11-12T05:49:57.461Z,87.90
2022-11-12T05:52:24.107Z,87.87
2022-11-12T05:54:50.628Z,87.76
2022-11-12T05:57:17.172Z,89.82
2022-11-12T05:59:43.680Z,90.38
2022-11-12T06:02:10.223Z,89.06
2022-11-12T06:04:36.881Z,88.10
2022-11-12T06:07:04.249Z,86.33
2022-11-12T06:09:30.884Z,84.61
2022-11-12T06:11:57.420Z,83.45
2022-11-12T06:14:23.952Z,81.08
2022-11-12T06:16:50.477Z,81.26
2022-11-12T06:19:17.029Z,80.11
2022-11-12T06:21:43.566Z,79.70
2022-11-12T06:24:10.648Z,79.01
2022-11-12T06:26:38.025Z,77.88
2022-11-12T06:29:04.696Z,78.00
2022-11-12T06:31:31.421Z,77.41
2022-11-12T06:33:57.946Z,77.57
2022-11-12T06:36:24.702Z,78.45
2022-11-12T06:38:51.251Z,78.86
2022-11-12T06:41:17.948Z,79.64
2022-11-12T06:43:44.525Z,79.80
2022-11-12T06:46:15.127Z,80.30
2022-11-12T06:48:43.081Z,80.50
2022-11-12T06:51:18.649Z,79.94
2022-11-12T06:53:45.399Z,79.68
2022-11-12T06:56:12.886Z,79.52
2022-11-12T06:58:40.092Z,79.20
2022-11-12T07:01:12.955Z,80.04
2022-11-12T07:03:41.966Z,80.49
2022-11-12T07:06:11.335Z,80.05
2022-11-12T07:08:38.968Z,78.82
2022-11-12T07:11:06.902Z,78.26
2022-11-12T07:13:35.251Z,78.56
2022-11-12T07:16:02.869Z,78.95
2022-11-12T07:18:30.722Z,79.31
2022-11-12T07:21:02.787Z,79.53
2022-11-12T07:23:30.600Z,79.87
2022-11-12T07:26:04.878Z,80.51
2022-11-12T07:28:31.865Z,80.81
2022-11-12T07:31:01.005Z,81.00
2022-11-12T07:33:28.831Z,81.38
2022-11-12T07:36:07.964Z,81.50
2022-11-12T07:38:36.614Z,81.76
2022-11-12T07:41:05.952Z,82.12
2022-11-12T07:43:34.401Z,82.31
2022-11-12T07:46:07.515Z,82.61
2022-11-12T07:48:37.460Z,82.86
2022-11-12T07:51:06.053Z,82.99
2022-11-12T07:53:32.944Z,83.10
2022-11-12T07:56:01.310Z,83.02
2022-11-12T07:58:31.300Z,83.68
2022-11-12T08:00:58.346Z,83.98
2022-11-12T08:03:24.875Z,83.70
2022-11-12T08:05:51.461Z,83.95
2022-11-12T08:08:17.961Z,84.33
2022-11-12T08:10:44.477Z,84.18
2022-11-12T08:13:10.965Z,84.53
2022-11-12T08:15:37.485Z,84.62
2022-11-12T08:18:04.143Z,84.62
2022-11-12T08:20:30.637Z,84.91
2022-11-12T08:23:00.275Z,85.01
2022-11-12T08:25:27.208Z,84.76
2022-11-12T08:27:57.077Z,84.70
2022-11-12T08:30:23.862Z,84.99
2022-11-12T08:32:59.700Z,84.74
2022-11-12T08:35:27.771Z,84.80
2022-11-12T08:37:59.012Z,84.85
2022-11-12T08:40:26.847Z,84.92
2022-11-12T08:43:00.998Z,84.84
2022-11-12T08:45:28.679Z,84.88
2022-11-12T08:48:13.921Z,84.98
2022-11-12T08:50:41.264Z,85.11
2022-11-12T08:53:13.372Z,84.63
2022-11-12T08:55:40.500Z,84.46
2022-11-12T08:58:07.643Z,84.32
2022-11-12T09:00:37.061Z,84.58
2022-11-12T09:03:05.304Z,84.47
2022-11-12T09:05:32.574Z,84.50
2022-11-12T09:08:05.831Z,84.12
2022-11-12T09:10:33.464Z,84.26
2022-11-12T09:13:00.302Z,83.95
2022-11-12T09:15:42.990Z,84.25
2022-11-12T09:18:15.679Z,83.83
2022-11-12T09:20:42.413Z,83.92
2022-11-12T09:23:11.615Z,83.68
2022-11-12T09:25:39.180Z,83.73
2022-11-12T09:28:08.482Z,83.67
2022-11-12T09:30:36.307Z,83.38
2022-11-12T09:33:02.835Z,83.10
2022-11-12T09:35:30.072Z,82.97
2022-11-12T09:37:58.400Z,82.79
2022-11-12T09:40:49.450Z,82.49
2022-11-12T09:43:23.462Z,82.12
2022-11-12T09:46:06.901Z,82.00
2022-11-12T09:48:46.066Z,82.35
2022-11-12T09:51:17.472Z,82.03
2022-11-12T09:53:52.458Z,81.87
2022-11-12T09:56:24.198Z,82.20
2022-11-12T09:58:51.865Z,81.85
2022-11-12T10:01:21.479Z,81.95
2022-11-12T10:03:56.931Z,81.33
2022-11-12T10:06:27.870Z,81.74
2022-11-12T10:09:24.025Z,81.85
2022-11-12T10:12:31.080Z,81.65
2022-11-12T10:16:00.995Z,81.46
2022-11-12T10:19:05.125Z,81.58
2022-11-12T10:21:40.902Z,81.76
2022-11-12T10:24:11.874Z,81.59
2022-11-12T10:26:39.989Z,81.82
2022-11-12T10:29:06.423Z,81.58
2022-11-12T10:31:33.076Z,81.67
2022-11-12T10:34:11.472Z,81.58
2022-11-12T10:36:40.478Z,80.71
2022-11-12T10:39:07.026Z,80.94
2022-11-12T10:41:34.199Z,80.82
2022-11-12T10:44:03.819Z,80.84
2022-11-12T10:46:36.496Z,81.00
2022-11-12T10:49:05.509Z,81.07
2022-11-12T10:51:37.754Z,81.17
2022-11-12T10:54:37.728Z,81.04
2022-11-12T10:57:22.791Z,80.83
2022-11-12T11:00:06.876Z,80.72
2022-11-12T11:02:33.477Z,80.69
2022-11-12T11:05:00.007Z,80.91
2022-11-12T11:07:26.705Z,80.96
2022-11-12T11:09:55.951Z,81.19
2022-11-12T11:12:26.999Z,81.37
2022-11-12T11:15:23.988Z,81.42
2022-11-12T11:17:50.700Z,81.42
2022-11-12T11:20:43.796Z,81.50
2022-11-12T11:23:25.311Z,81.41
2022-11-12T11:25:55.057Z,81.56
2022-11-12T11:28:29.402Z,81.10
2022-11-12T11:31:39.707Z,81.08
2022-11-12T11:34:28.126Z,81.36
2022-11-12T11:37:05.045Z,81.67
2022-11-12T11:39:42.521Z,81.59
2022-11-12T11:42:18.021Z,81.54
2022-11-12T11:45:26.077Z,81.85
2022-11-12T11:48:01.762Z,81.79
2022-11-12T11:50:51.747Z,81.91
2022-11-12T11:53:26.719Z,81.89
2022-11-12T11:56:10.356Z,82.17
2022-11-12T11:58:59.171Z,82.41
2022-11-12T12:01:42.162Z,82.16
2022-11-12T12:04:30.436Z,82.01
2022-11-12T12:07:15.778Z,82.13
2022-11-12T12:09:47.955Z,82.62
2022-11-12T12:12:37.045Z,82.15
2022-11-12T12:16:13.329Z,82.44
2022-11-12T12:18:58.691Z,82.19
2022-11-12T12:21:31.902Z,81.85
2022-11-12T12:24:03.727Z,81.88
2022-11-12T12:26:37.191Z,82.00
2022-11-12T12:29:15.704Z,81.64
2022-11-12T12:31:56.029Z,81.57
2022-11-12T12:34:32.405Z,81.52
2022-11-12T12:37:34.676Z,81.34
2022-11-12T12:40:22.615Z,81.14
2022-11-12T12:43:01.879Z,81.08
2022-11-12T12:45:38.255Z,81.20
2022-11-12T12:48:12.864Z,81.59
2022-11-12T12:50:41.296Z,81.89
2022-11-12T12:53:29.158Z,82.34
2022-11-12T12:55:58.345Z,82.08
2022-11-12T12:58:41.883Z,82.19
2022-11-12T13:01:29.094Z,81.82
2022-11-12T13:03:59.510Z,81.99
2022-11-12T13:06:27.731Z,82.00
2022-11-12T13:09:06.231Z,82.21
2022-11-12T13:12:00.347Z,82.23
2022-11-12T13:14:35.912Z,82.09
2022-11-12T13:17:11.725Z,81.85
2022-11-12T13:20:10.734Z,81.63
2022-11-12T13:22:40.007Z,81.56
2022-11-12T13:25:13.405Z,81.28
2022-11-12T13:27:40.147Z,81.29
2022-11-12T13:30:20.800Z,81.05
2022-11-12T13:32:47.286Z,81.52
2022-11-12T13:35:21.577Z,81.40
2022-11-12T13:37:54.187Z,81.37
2022-11-12T13:40:26.805Z,81.77
2022-11-12T13:42:53.637Z,81.79
2022-11-12T13:45:23.864Z,82.07
2022-11-12T13:47:51.883Z,82.21
2022-11-12T13:50:22.512Z,81.54
2022-11-12T13:52:49.796Z,81.67
2022-11-12T13:55:19.244Z,82.04
2022-11-12T13:57:50.625Z,81.82
2022-11-12T14:00:17.099Z,82.32
2022-11-12T14:02:51.982Z,81.72
2022-11-12T14:05:23.376Z,81.54
2022-11-12T14:08:08.729Z,81.32
2022-11-12T14:10:45.900Z,81.80
2022-11-12T14:13:27.733Z,81.68
2022-11-12T14:16:00.349Z,81.65
2022-11-12T14:18:58.589Z,81.69
2022-11-12T14:21:25.322Z,81.33
2022-11-12T14:23:52.906Z,81.75
2022-11-12T14:26:43.015Z,81.84
2022-11-12T14:29:19.608Z,81.19
2022-11-12T14:31:46.682Z,81.46
2022-11-12T14:34:27.010Z,81.25
2022-11-12T14:36:56.003Z,81.44
2022-11-12T14:39:30.612Z,81.71
2022-11-12T14:41:59.515Z,81.73
2022-11-12T14:44:35.121Z,81.64
2022-11-12T14:47:01.976Z,82.03
2022-11-12T14:49:46.913Z,81.88
2022-11-12T14:52:21.779Z,82.23
2022-11-12T14:54:58.301Z,82.05
2022-11-12T14:57:29.743Z,81.69
2022-11-12T14:59:57.350Z,81.89
2022-11-12T15:02:49.934Z,82.04
2022-11-12T15:05:21.306Z,82.05
2022-11-12T15:07:57.392Z,82.04
2022-11-12T15:10:45.720Z,82.30
2022-11-12T15:13:20.559Z,82.10
2022-11-12T15:15:52.276Z,82.09
2022-11-12T15:18:29.523Z,82.46
2022-11-12T15:21:22.908Z,81.67
2022-11-12T15:23:51.953Z,82.47
2022-11-12T15:26:33.961Z,82.22
2022-11-12T15:29:23.692Z,82.17
2022-11-12T15:31:53.283Z,82.23
2022-11-12T15:34:28.900Z,82.36
2022-11-12T15:36:56.913Z,82.42
2022-11-12T15:39:26.216Z,82.60
2022-11-12T15:41:58.350Z,82.65
2022-11-12T15:44:25.487Z,82.76
2022-11-12T15:46:53.439Z,82.57
2022-11-12T15:49:20.102Z,82.57
2022-11-12T15:51:46.684Z,82.89
2022-11-12T15:54:13.232Z,82.99
2022-11-12T15:56:39.953Z,82.46
2022-11-12T15:59:06.616Z,83.34
2022-11-12T16:01:33.244Z,83.42
2022-11-12T16:03:59.877Z,83.27
2022-11-12T16:06:26.402Z,83.42
2022-11-12T16:08:52.921Z,83.07
2022-11-12T16:11:38.059Z,83.29
2022-11-12T16:14:09.603Z,83.18
2022-11-12T16:16:37.756Z,83.54
2022-11-12T16:19:04.300Z,83.33
2022-11-12T16:21:30.948Z,83.50
2022-11-12T16:23:57.518Z,83.73
2022-11-12T16:26:28.689Z,84.10
2022-11-12T16:28:55.381Z,83.74
2022-11-12T16:31:22.049Z,83.85
2022-11-12T16:33:48.638Z,83.76
2022-11-12T16:36:16.057Z,83.86
2022-11-12T16:38:42.706Z,83.34
2022-11-12T16:41:13.984Z,83.24
2022-11-12T16:43:40.506Z,83.78
2022-11-12T16:46:15.097Z,83.96
2022-11-12T16:48:41.644Z,83.97
2022-11-12T16:51:16.685Z,84.00
2022-11-12T16:53:43.522Z,83.89
2022-11-12T16:56:17.562Z,84.07
2022-11-12T16:58:44.775Z,84.20
2022-11-12T17:01:29.155Z,84.08
2022-11-12T17:03:57.275Z,84.50
2022-11-12T17:06:38.442Z,84.55
2022-11-12T17:09:06.220Z,84.28
2022-11-12T17:11:34.141Z,84.50
2022-11-12T17:14:01.204Z,84.50
2022-11-12T17:16:28.314Z,84.58
2022-11-12T17:18:56.502Z,84.77
2022-11-12T17:21:23.585Z,84.85
2022-11-12T17:23:50.292Z,84.82
2022-11-12T17:26:19.751Z,85.00
2022-11-12T17:28:46.816Z,85.12
2022-11-12T17:31:21.834Z,85.09
2022-11-12T17:33:53.029Z,85.39
2022-11-12T17:36:25.888Z,85.06
2022-11-12T17:39:00.306Z,85.20
2022-11-12T17:41:28.776Z,85.08
2022-11-12T17:43:56.784Z,85.28
2022-11-12T17:46:24.052Z,85.00
2022-11-12T17:48:50.652Z,84.95
2022-11-12T17:51:20.901Z,85.07
2022-11-12T17:53:47.646Z,85.25
2022-11-12T17:56:17.420Z,85.34
2022-11-12T17:58:45.520Z,85.22
2022-11-12T18:01:16.266Z,85.13
2022-11-12T18:03:44.692Z,84.88
2022-11-12T18:06:16.502Z,85.15
2022-11-12T18:08:43.949Z,85.22
2022-11-12T18:11:13.009Z,85.06
2022-11-12T18:13:39.598Z,85.25
2022-11-12T18:16:19.895Z,84.66
2022-11-12T18:18:46.538Z,84.89
2022-11-12T18:21:13.854Z,85.37
2022-11-12T18:23:43.639Z,85.20
2022-11-12T18:26:14.986Z,85.17
2022-11-12T18:28:42.535Z,85.01
2022-11-12T18:31:11.946Z,84.88
2022-11-12T18:33:38.997Z,84.70
2022-11-12T18:36:08.790Z,84.81
2022-11-12T18:38:36.005Z,84.52
2022-11-12T18:41:06.911Z,84.85
2022-11-12T18:43:35.498Z,84.79
2022-11-12T18:46:02.125Z,84.46
2022-11-12T18:48:29.878Z,84.90
2022-11-12T18:51:11.336Z,84.70
2022-11-12T18:53:39.666Z,84.66
2022-11-12T18:56:15.301Z,84.37
2022-11-12T18:58:41.898Z,84.66
2022-11-12T19:01:12.062Z,84.60
2022-11-12T19:03:38.743Z,84.40
2022-11-12T19:06:06.673Z,84.42
2022-11-12T19:08:34.032Z,84.49
2022-11-12T19:11:05.901Z,84.73
2022-11-12T19:13:33.030Z,84.95
2022-11-12T19:16:08.904Z,85.11
2022-11-12T19:18:35.508Z,85.24
2022-11-12T19:21:05.255Z,85.30
2022-11-12T19:23:33.121Z,85.42
2022-11-12T19:26:00.757Z,85.37
2022-11-12T19:28:27.745Z,85.60
2022-11-12T19:30:54.474Z,85.21
2022-11-12T19:33:21.069Z,85.64
2022-11-12T19:35:47.669Z,85.65
2022-11-12T19:38:15.319Z,85.51
2022-11-12T19:40:42.425Z,85.36
2022-11-12T19:43:08.969Z,85.39
2022-11-12T19:45:35.494Z,85.47
2022-11-12T19:48:02.972Z,85.60
2022-11-12T19:50:30.748Z,85.57
2022-11-12T19:52:57.347Z,85.65
2022-11-12T19:55:25.696Z,85.47
2022-11-12T19:57:52.294Z,85.72
2022-11-12T20:00:18.906Z,85.73
2022-11-12T20:02:45.438Z,85.77
2022-11-12T20:05:12.151Z,85.89
2022-11-12T20:07:38.823Z,85.72
2022-11-12T20:10:05.681Z,85.78
2022-11-12T20:12:33.035Z,85.95
2022-11-12T20:14:59.569Z,85.96
2022-11-12T20:17:26.107Z,85.64
2022-11-12T20:19:52.624Z,85.69
2022-11-12T20:22:19.183Z,85.66
2022-11-12T20:24:45.675Z,85.63
2022-11-12T20:27:12.226Z,85.73
2022-11-12T20:29:38.869Z,85.75
2022-11-12T20:32:05.703Z,85.95
2022-11-12T20:34:32.221Z,85.74
2022-11-12T20:36:58.729Z,85.94
2022-11-12T20:39:25.292Z,85.73
2022-11-12T20:41:51.899Z,85.75
2022-11-12T20:44:18.389Z,85.38
2022-11-12T20:46:46.059Z,85.44
2022-11-12T20:49:12.554Z,85.59
2022-11-12T20:51:39.741Z,85.58
2022-11-12T20:54:06.343Z,85.70
2022-11-12T20:56:32.863Z,85.63
2022-11-12T20:58:59.937Z,85.49
2022-11-12T21:01:28.430Z,85.41
2022-11-12T21:03:56.264Z,85.68
2022-11-12T21:06:26.074Z,85.40
2022-11-12T21:08:52.848Z,85.23
2022-11-12T21:11:21.899Z,85.49
2022-11-12T21:13:48.813Z,85.20
2022-11-12T21:16:15.410Z,85.19
2022-11-12T21:18:42.271Z,85.27
2022-11-12T21:21:14.036Z,85.35
2022-11-12T21:23:46.429Z,85.19
2022-11-12T21:26:19.319Z,85.44
2022-11-12T21:28:48.495Z,85.41
2022-11-12T21:31:18.062Z,85.51
2022-11-12T21:33:45.155Z,85.53
2022-11-12T21:36:16.198Z,85.62
2022-11-12T21:38:44.119Z,85.47
2022-11-12T21:41:17.157Z,85.35
2022-11-12T21:43:44.996Z,85.37
2022-11-12T21:46:14.566Z,85.24
2022-11-12T21:48:41.152Z,85.43
2022-11-12T21:51:11.587Z,86.08
2022-11-12T21:53:38.953Z,85.89
2022-11-12T21:56:16.840Z,85.98
2022-11-12T21:58:44.310Z,86.20
2022-11-12T22:01:10.841Z,85.98
2022-11-12T22:03:38.210Z,85.85
2022-11-12T22:06:05.975Z,85.84
2022-11-12T22:08:33.342Z,85.97
2022-11-12T22:11:08.713Z,85.82
2022-11-12T22:13:35.828Z,85.72
2022-11-12T22:16:17.438Z,85.71
2022-11-12T22:18:46.276Z,85.77
2022-11-12T22:21:18.829Z,85.93
2022-11-12T22:23:45.410Z,85.74
2022-11-12T22:26:25.184Z,85.66
2022-11-12T22:28:53.318Z,85.44
2022-11-12T22:31:22.201Z,85.96
2022-11-12T22:33:49.080Z,85.85
2022-11-12T22:36:21.050Z,85.55
2022-11-12T22:38:48.791Z,85.78
2022-11-12T22:41:17.971Z,85.83
2022-11-12T22:43:53.091Z,85.92
2022-11-12T22:46:22.106Z,85.60
2022-11-12T22:48:48.941Z,85.67
2022-11-12T22:51:17.674Z,85.81
2022-11-12T22:53:44.497Z,86.00
2022-11-12T22:56:13.563Z,86.04
2022-11-12T22:58:45.335Z,85.78
2022-11-12T23:01:22.657Z,85.70
2022-11-12T23:03:51.010Z,85.54
2022-11-12T23:06:18.386Z,85.09
2022-11-12T23:08:45.187Z,85.72
2022-11-12T23:11:15.010Z,85.60
2022-11-12T23:13:41.831Z,85.86
2022-11-12T23:16:14.719Z,85.88
2022-11-12T23:18:41.566Z,85.74
2022-11-12T23:21:11.807Z,85.87
2022-11-12T23:23:38.850Z,85.94
2022-11-12T23:26:12.078Z,86.14
2022-11-12T23:28:38.740Z,86.14
2022-11-12T23:31:09.909Z,85.46
2022-11-12T23:33:36.427Z,85.72
2022-11-12T23:36:09.739Z,85.84
2022-11-12T23:38:36.602Z,85.47
2022-11-12T23:41:04.103Z,85.96
2022-11-12T23:43:31.184Z,85.77
2022-11-12T23:45:58.272Z,85.57
2022-11-12T23:48:25.373Z,85.45
2022-11-12T23:51:04.252Z,85.42
2022-11-12T23:53:33.588Z,85.73
2022-11-12T23:56:00.408Z,85.75
2022-11-12T23:58:27.397Z,85.60
